KMCN/MCN METAR and TAF weather

Enter ICAO airport designator
Station Type Date Time Source
KMCN METAR 2022/11/27 08:29 UTC NOAA

KMCN 270829Z AUTO 09006KT 7SM -RA FEW005 BKN025 OVC038 16/16 A2986 RMK AO2 P0025 T01610156


Station Type Date Time Source
KMCN Decoded METAR 2022/11/27 08:29 UTC NOAA

MIDDLE GEORGIA REGIONAL AIRPORT , GA, United States (KMCN) 32-41N 83-39W 109M
Nov 27, 2022 - 03:29 AM EST / 2022.11.27 0829 UTC
Wind: from the E (090 degrees) at 7 MPH (6 KT):0
Visibility: 7 mile(s):0
Sky conditions: overcast
Weather: light rain
Precipitation last hour: 0.25 inches
Temperature: 61.0 F (16.1 C)
Dew Point: 60.1 F (15.6 C)
Relative Humidity: 96%
Pressure (altimeter): 29.86 in. Hg (1011 hPa)
ob: KMCN 270829Z AUTO 09006KT 7SM -RA FEW005 BKN025 OVC038 16/16 A2986 RMK AO2 P0025 T01610156
cycle: 8

Station Type Date Time Source
KMCN TAF 2022/11/27 08:30 UTC NOAA

TAF
AMD KMCN 270828Z 2708/2806 11008KT 2SM RA BR SCT005 OVC006
FM271000 15010G21KT 3SM SHRA BR OVC007
TEMPO 2710/2714 2SM TSRA BR SCT003 OVC007CB
FM271500 23012G25KT P6SM FEW025 SCT050 WS020/21030KT
FM271800 25013G23KT P6SM SKC WS020/21030KT
FM272200 25009KT P6SM SKC
FM280500 25005KT P6SM FEW200

Example: see airport list